sensor_id;sensor_type;location;lat;lon;timestamp;P1;durP1;ratioP1;P2;durP2;ratioP2
53245;SDS011;39569;51.090;-1.786;2022-10-01T00:01:54;1.98;;;0.73;;
53245;SDS011;39569;51.090;-1.786;2022-10-01T00:04:22;8.80;;;3.60;;
53245;SDS011;39569;51.090;-1.786;2022-10-01T00:06:49;2.63;;;2.00;;
53245;SDS011;39569;51.090;-1.786;2022-10-01T00:09:15;1.10;;;0.90;;
53245;SDS011;39569;51.090;-1.786;2022-10-01T00:11:42;7.75;;;1.48;;
53245;SDS011;39569;51.090;-1.786;2022-10-01T00:14:10;2.08;;;1.95;;
53245;SDS011;39569;51.090;-1.786;2022-10-01T00:16:37;2.28;;;2.08;;
53245;SDS011;39569;51.090;-1.786;2022-10-01T00:19:04;1.90;;;1.80;;
53245;SDS011;39569;51.090;-1.786;2022-10-01T00:21:31;1.15;;;1.15;;
53245;SDS011;39569;51.090;-1.786;2022-10-01T00:23:58;8.40;;;1.65;;
53245;SDS011;39569;51.090;-1.786;2022-10-01T00:26:28;1.73;;;1.63;;
53245;SDS011;39569;51.090;-1.786;2022-10-01T00:28:58;3.88;;;3.05;;
53245;SDS011;39569;51.090;-1.786;2022-10-01T00:31:28;4.57;;;3.13;;
53245;SDS011;39569;51.090;-1.786;2022-10-01T00:33:56;5.28;;;2.58;;
53245;SDS011;39569;51.090;-1.786;2022-10-01T00:36:26;2.10;;;2.00;;
53245;SDS011;39569;51.090;-1.786;2022-10-01T00:38:53;1.15;;;1.13;;
53245;SDS011;39569;51.090;-1.786;2022-10-01T00:41:22;7.05;;;1.52;;
53245;SDS011;39569;51.090;-1.786;2022-10-01T00:43:53;3.60;;;2.47;;
53245;SDS011;39569;51.090;-1.786;2022-10-01T00:46:23;6.80;;;4.00;;
53245;SDS011;39569;51.090;-1.786;2022-10-01T00:48:56;2.75;;;2.55;;
53245;SDS011;39569;51.090;-1.786;2022-10-01T00:51:27;4.32;;;3.25;;
53245;SDS011;39569;51.090;-1.786;2022-10-01T00:53:57;5.55;;;4.00;;
53245;SDS011;39569;51.090;-1.786;2022-10-01T00:56:31;2.72;;;1.45;;
53245;SDS011;39569;51.090;-1.786;2022-10-01T01:02:20;3.45;;;2.60;;
53245;SDS011;39569;51.090;-1.786;2022-10-01T01:11:33;2.97;;;1.98;;
53245;SDS011;39569;51.090;-1.786;2022-10-01T01:14:09;9.50;;;2.70;;
53245;SDS011;39569;51.090;-1.786;2022-10-01T01:16:46;1.58;;;1.58;;
53245;SDS011;39569;51.090;-1.786;2022-10-01T01:19:20;2.50;;;2.13;;
53245;SDS011;39569;51.090;-1.786;2022-10-01T01:21:58;4.65;;;3.50;;
53245;SDS011;39569;51.090;-1.786;2022-10-01T01:27:23;7.82;;;7.03;;
53245;SDS011;39569;51.090;-1.786;2022-10-01T01:29:57;4.47;;;3.20;;
53245;SDS011;39569;51.090;-1.786;2022-10-01T01:32:29;8.60;;;4.80;;
53245;SDS011;39569;51.090;-1.786;2022-10-01T01:35:02;2.92;;;2.63;;
53245;SDS011;39569;51.090;-1.786;2022-10-01T01:37:32;1.63;;;1.23;;
53245;SDS011;39569;51.090;-1.786;2022-10-01T01:40:03;14.13;;;5.00;;
53245;SDS011;39569;51.090;-1.786;2022-10-01T01:42:35;2.88;;;2.65;;
53245;SDS011;39569;51.090;-1.786;2022-10-01T01:45:07;2.50;;;2.17;;
53245;SDS011;39569;51.090;-1.786;2022-10-01T01:47:39;3.37;;;2.70;;
53245;SDS011;39569;51.090;-1.786;2022-10-01T01:50:09;3.28;;;1.40;;
53245;SDS011;39569;51.090;-1.786;2022-10-01T01:52:39;8.77;;;4.10;;
53245;SDS011;39569;51.090;-1.786;2022-10-01T01:55:07;6.15;;;5.35;;
53245;SDS011;39569;51.090;-1.786;2022-10-01T01:57:35;1.20;;;0.88;;
53245;SDS011;39569;51.090;-1.786;2022-10-01T02:00:04;5.00;;;2.55;;
53245;SDS011;39569;51.090;-1.786;2022-10-01T02:02:35;4.40;;;1.98;;
53245;SDS011;39569;51.090;-1.786;2022-10-01T02:05:06;4.05;;;3.13;;
53245;SDS011;39569;51.090;-1.786;2022-10-01T02:07:42;2.42;;;2.05;;
53245;SDS011;39569;51.090;-1.786;2022-10-01T02:10:24;3.92;;;2.67;;
53245;SDS011;39569;51.090;-1.786;2022-10-01T02:13:03;0.77;;;0.77;;
53245;SDS011;39569;51.090;-1.786;2022-10-01T02:15:44;1.48;;;1.42;;
53245;SDS011;39569;51.090;-1.786;2022-10-01T02:18:21;7.70;;;3.92;;
53245;SDS011;39569;51.090;-1.786;2022-10-01T02:20:55;8.70;;;3.25;;
53245;SDS011;39569;51.090;-1.786;2022-10-01T02:23:30;15.77;;;8.15;;
53245;SDS011;39569;51.090;-1.786;2022-10-01T02:26:03;1.55;;;1.40;;
53245;SDS011;39569;51.090;-1.786;2022-10-01T02:28:33;9.65;;;3.15;;
53245;SDS011;39569;51.090;-1.786;2022-10-01T02:31:06;2.13;;;2.00;;
53245;SDS011;39569;51.090;-1.786;2022-10-01T02:33:36;18.52;;;5.30;;
53245;SDS011;39569;51.090;-1.786;2022-10-01T02:36:05;2.97;;;2.42;;
53245;SDS011;39569;51.090;-1.786;2022-10-01T02:38:34;4.53;;;2.50;;
53245;SDS011;39569;51.090;-1.786;2022-10-01T02:41:04;7.72;;;2.53;;
53245;SDS011;39569;51.090;-1.786;2022-10-01T02:43:37;17.13;;;5.03;;
53245;SDS011;39569;51.090;-1.786;2022-10-01T02:46:12;3.17;;;2.92;;
53245;SDS011;39569;51.090;-1.786;2022-10-01T02:48:41;4.10;;;3.80;;
53245;SDS011;39569;51.090;-1.786;2022-10-01T02:51:13;8.07;;;3.90;;
53245;SDS011;39569;51.090;-1.786;2022-10-01T02:53:51;1.20;;;1.20;;
53245;SDS011;39569;51.090;-1.786;2022-10-01T02:56:23;3.92;;;3.03;;
53245;SDS011;39569;51.090;-1.786;2022-10-01T02:59:09;5.22;;;4.72;;
53245;SDS011;39569;51.090;-1.786;2022-10-01T03:01:38;3.65;;;3.03;;
53245;SDS011;39569;51.090;-1.786;2022-10-01T03:04:05;2.67;;;2.42;;
53245;SDS011;39569;51.090;-1.786;2022-10-01T03:06:32;2.67;;;1.92;;
53245;SDS011;39569;51.090;-1.786;2022-10-01T03:09:00;48.45;;;4.05;;
53245;SDS011;39569;51.090;-1.786;2022-10-01T03:11:27;2.63;;;1.85;;
53245;SDS011;39569;51.090;-1.786;2022-10-01T03:13:54;7.97;;;3.70;;
53245;SDS011;39569;51.090;-1.786;2022-10-01T03:16:22;3.50;;;3.20;;
53245;SDS011;39569;51.090;-1.786;2022-10-01T03:18:50;10.30;;;5.38;;
53245;SDS011;39569;51.090;-1.786;2022-10-01T03:21:17;5.50;;;3.42;;
53245;SDS011;39569;51.090;-1.786;2022-10-01T03:23:44;2.17;;;1.85;;
53245;SDS011;39569;51.090;-1.786;2022-10-01T03:26:11;17.13;;;2.72;;
53245;SDS011;39569;51.090;-1.786;2022-10-01T03:28:38;2.97;;;2.60;;
53245;SDS011;39569;51.090;-1.786;2022-10-01T03:31:06;6.90;;;3.03;;
53245;SDS011;39569;51.090;-1.786;2022-10-01T03:33:34;6.35;;;5.65;;
53245;SDS011;39569;51.090;-1.786;2022-10-01T03:36:03;5.13;;;3.45;;
53245;SDS011;39569;51.090;-1.786;2022-10-01T03:38:30;2.17;;;1.30;;
53245;SDS011;39569;51.090;-1.786;2022-10-01T03:40:57;2.00;;;1.20;;
53245;SDS011;39569;51.090;-1.786;2022-10-01T03:43:24;0.77;;;0.77;;
53245;SDS011;39569;51.090;-1.786;2022-10-01T03:45:53;5.47;;;2.50;;
53245;SDS011;39569;51.090;-1.786;2022-10-01T03:48:20;2.38;;;2.28;;
53245;SDS011;39569;51.090;-1.786;2022-10-01T03:50:51;5.47;;;2.33;;
53245;SDS011;39569;51.090;-1.786;2022-10-01T03:53:20;2.43;;;2.27;;
53245;SDS011;39569;51.090;-1.786;2022-10-01T03:55:47;3.20;;;2.92;;
53245;SDS011;39569;51.090;-1.786;2022-10-01T03:58:14;4.57;;;2.50;;
53245;SDS011;39569;51.090;-1.786;2022-10-01T04:00:43;18.08;;;4.95;;
53245;SDS011;39569;51.090;-1.786;2022-10-01T04:03:10;2.42;;;2.30;;
53245;SDS011;39569;51.090;-1.786;2022-10-01T04:05:37;1.50;;;1.40;;
53245;SDS011;39569;51.090;-1.786;2022-10-01T04:08:04;3.25;;;2.92;;
53245;SDS011;39569;51.090;-1.786;2022-10-01T04:10:33;1.45;;;1.35;;
53245;SDS011;39569;51.090;-1.786;2022-10-01T04:13:00;3.45;;;2.47;;
53245;SDS011;39569;51.090;-1.786;2022-10-01T04:15:27;11.63;;;7.20;;
53245;SDS011;39569;51.090;-1.786;2022-10-01T04:17:53;1.88;;;1.75;;
53245;SDS011;39569;51.090;-1.786;2022-10-01T04:20:20;0.45;;;0.45;;
53245;SDS011;39569;51.090;-1.786;2022-10-01T04:22:48;15.50;;;3.03;;
53245;SDS011;39569;51.090;-1.786;2022-10-01T04:25:15;2.20;;;2.00;;
53245;SDS011;39569;51.090;-1.786;2022-10-01T04:27:53;6.47;;;2.28;;
53245;SDS011;39569;51.090;-1.786;2022-10-01T04:30:21;6.13;;;1.20;;
53245;SDS011;39569;51.090;-1.786;2022-10-01T04:32:48;2.20;;;1.30;;
53245;SDS011;39569;51.090;-1.786;2022-10-01T04:35:15;5.35;;;3.78;;
53245;SDS011;39569;51.090;-1.786;2022-10-01T04:37:42;4.05;;;1.70;;
53245;SDS011;39569;51.090;-1.786;2022-10-01T04:40:09;3.83;;;2.40;;
53245;SDS011;39569;51.090;-1.786;2022-10-01T04:42:37;2.05;;;1.55;;
53245;SDS011;39569;51.090;-1.786;2022-10-01T04:45:08;1.38;;;1.23;;
53245;SDS011;39569;51.090;-1.786;2022-10-01T04:47:37;13.32;;;4.00;;
53245;SDS011;39569;51.090;-1.786;2022-10-01T04:50:12;23.13;;;2.80;;
53245;SDS011;39569;51.090;-1.786;2022-10-01T04:52:39;1.00;;;1.00;;
53245;SDS011;39569;51.090;-1.786;2022-10-01T04:55:07;2.22;;;2.05;;
53245;SDS011;39569;51.090;-1.786;2022-10-01T04:57:34;1.70;;;1.55;;
53245;SDS011;39569;51.090;-1.786;2022-10-01T05:00:02;4.13;;;2.05;;
53245;SDS011;39569;51.090;-1.786;2022-10-01T05:02:32;2.75;;;2.63;;
53245;SDS011;39569;51.090;-1.786;2022-10-01T05:04:59;5.28;;;3.83;;
53245;SDS011;39569;51.090;-1.786;2022-10-01T05:07:28;2.03;;;1.93;;
53245;SDS011;39569;51.090;-1.786;2022-10-01T05:09:55;0.30;;;0.30;;
53245;SDS011;39569;51.090;-1.786;2022-10-01T05:12:22;2.35;;;2.25;;
53245;SDS011;39569;51.090;-1.786;2022-10-01T05:14:50;6.45;;;3.35;;
53245;SDS011;39569;51.090;-1.786;2022-10-01T05:17:17;4.65;;;1.88;;
53245;SDS011;39569;51.090;-1.786;2022-10-01T05:19:45;1.75;;;0.90;;
53245;SDS011;39569;51.090;-1.786;2022-10-01T05:22:13;1.50;;;0.80;;
53245;SDS011;39569;51.090;-1.786;2022-10-01T05:24:41;4.25;;;3.88;;
53245;SDS011;39569;51.090;-1.786;2022-10-01T05:27:08;8.77;;;2.05;;
53245;SDS011;39569;51.090;-1.786;2022-10-01T05:29:36;7.35;;;2.47;;
53245;SDS011;39569;51.090;-1.786;2022-10-01T05:32:03;8.25;;;4.03;;
53245;SDS011;39569;51.090;-1.786;2022-10-01T05:34:30;1.75;;;1.65;;
53245;SDS011;39569;51.090;-1.786;2022-10-01T05:36:58;0.63;;;0.63;;
53245;SDS011;39569;51.090;-1.786;2022-10-01T05:39:27;4.38;;;2.33;;
53245;SDS011;39569;51.090;-1.786;2022-10-01T05:41:54;0.93;;;0.90;;
53245;SDS011;39569;51.090;-1.786;2022-10-01T05:44:21;2.03;;;0.55;;
53245;SDS011;39569;51.090;-1.786;2022-10-01T05:46:48;1.55;;;0.77;;
53245;SDS011;39569;51.090;-1.786;2022-10-01T05:49:15;16.50;;;1.42;;
53245;SDS011;39569;51.090;-1.786;2022-10-01T05:51:42;6.32;;;3.95;;
53245;SDS011;39569;51.090;-1.786;2022-10-01T05:54:11;6.70;;;2.70;;
53245;SDS011;39569;51.090;-1.786;2022-10-01T05:56:40;7.55;;;2.80;;
53245;SDS011;39569;51.090;-1.786;2022-10-01T05:59:07;6.72;;;3.28;;
53245;SDS011;39569;51.090;-1.786;2022-10-01T06:01:34;6.25;;;3.60;;
53245;SDS011;39569;51.090;-1.786;2022-10-01T06:04:01;7.03;;;3.28;;
53245;SDS011;39569;51.090;-1.786;2022-10-01T06:06:28;3.10;;;1.30;;
53245;SDS011;39569;51.090;-1.786;2022-10-01T06:08:55;0.68;;;0.68;;
53245;SDS011;39569;51.090;-1.786;2022-10-01T06:11:25;0.73;;;0.73;;
53245;SDS011;39569;51.090;-1.786;2022-10-01T06:13:52;3.22;;;2.30;;
53245;SDS011;39569;51.090;-1.786;2022-10-01T06:16:19;0.63;;;0.63;;
53245;SDS011;39569;51.090;-1.786;2022-10-01T06:18:46;1.65;;;1.30;;
53245;SDS011;39569;51.090;-1.786;2022-10-01T06:21:21;3.70;;;1.48;;
53245;SDS011;39569;51.090;-1.786;2022-10-01T06:23:48;0.80;;;0.80;;
53245;SDS011;39569;51.090;-1.786;2022-10-01T06:26:15;0.57;;;0.57;;
53245;SDS011;39569;51.090;-1.786;2022-10-01T06:28:46;2.72;;;2.53;;
53245;SDS011;39569;51.090;-1.786;2022-10-01T06:31:14;1.80;;;1.70;;
53245;SDS011;39569;51.090;-1.786;2022-10-01T06:33:41;0.63;;;0.63;;
53245;SDS011;39569;51.090;-1.786;2022-10-01T06:36:08;2.38;;;2.15;;
53245;SDS011;39569;51.090;-1.786;2022-10-01T06:38:35;1.67;;;1.58;;
53245;SDS011;39569;51.090;-1.786;2022-10-01T06:41:02;1.42;;;1.40;;
53245;SDS011;39569;51.090;-1.786;2022-10-01T06:43:29;6.45;;;3.25;;
53245;SDS011;39569;51.090;-1.786;2022-10-01T06:46:00;3.20;;;2.72;;
53245;SDS011;39569;51.090;-1.786;2022-10-01T06:48:28;1.17;;;0.90;;
53245;SDS011;39569;51.090;-1.786;2022-10-01T06:50:55;2.58;;;2.38;;
53245;SDS011;39569;51.090;-1.786;2022-10-01T06:53:23;1.85;;;1.20;;
53245;SDS011;39569;51.090;-1.786;2022-10-01T06:55:50;3.30;;;2.90;;
53245;SDS011;39569;51.090;-1.786;2022-10-01T06:58:17;3.55;;;3.35;;
53245;SDS011;39569;51.090;-1.786;2022-10-01T07:00:46;1.08;;;1.05;;
53245;SDS011;39569;51.090;-1.786;2022-10-01T07:03:16;2.50;;;1.95;;
53245;SDS011;39569;51.090;-1.786;2022-10-01T07:05:44;1.90;;;1.10;;
53245;SDS011;39569;51.090;-1.786;2022-10-01T07:08:12;2.03;;;1.38;;
53245;SDS011;39569;51.090;-1.786;2022-10-01T07:10:39;2.35;;;2.25;;
53245;SDS011;39569;51.090;-1.786;2022-10-01T07:13:08;4.43;;;1.92;;
53245;SDS011;39569;51.090;-1.786;2022-10-01T07:15:37;0.77;;;0.77;;
53245;SDS011;39569;51.090;-1.786;2022-10-01T07:18:04;2.05;;;1.95;;
53245;SDS011;39569;51.090;-1.786;2022-10-01T07:20:34;2.10;;;2.00;;
53245;SDS011;39569;51.090;-1.786;2022-10-01T07:23:04;9.10;;;4.47;;
53245;SDS011;39569;51.090;-1.786;2022-10-01T07:25:31;1.15;;;1.13;;
53245;SDS011;39569;51.090;-1.786;2022-10-01T07:27:59;1.83;;;1.73;;
53245;SDS011;39569;51.090;-1.786;2022-10-01T07:30:29;2.05;;;1.95;;
53245;SDS011;39569;51.090;-1.786;2022-10-01T07:32:57;9.53;;;2.40;;
53245;SDS011;39569;51.090;-1.786;2022-10-01T07:35:24;3.08;;;2.58;;
53245;SDS011;39569;51.090;-1.786;2022-10-01T07:37:54;8.20;;;2.55;;
53245;SDS011;39569;51.090;-1.786;2022-10-01T07:40:20;5.70;;;4.82;;
53245;SDS011;39569;51.090;-1.786;2022-10-01T07:42:51;2.90;;;2.63;;
53245;SDS011;39569;51.090;-1.786;2022-10-01T07:45:19;4.78;;;3.55;;
53245;SDS011;39569;51.090;-1.786;2022-10-01T07:47:53;3.97;;;3.10;;
53245;SDS011;39569;51.090;-1.786;2022-10-01T07:50:20;7.95;;;5.05;;
53245;SDS011;39569;51.090;-1.786;2022-10-01T07:52:51;5.25;;;2.28;;
53245;SDS011;39569;51.090;-1.786;2022-10-01T07:55:20;4.13;;;3.72;;
53245;SDS011;39569;51.090;-1.786;2022-10-01T07:57:51;4.28;;;3.00;;
53245;SDS011;39569;51.090;-1.786;2022-10-01T08:00:18;0.82;;;0.82;;
53245;SDS011;39569;51.090;-1.786;2022-10-01T08:02:46;2.38;;;2.17;;
53245;SDS011;39569;51.090;-1.786;2022-10-01T08:05:15;1.58;;;0.88;;
53245;SDS011;39569;51.090;-1.786;2022-10-01T08:07:45;3.63;;;2.08;;
53245;SDS011;39569;51.090;-1.786;2022-10-01T08:10:13;3.42;;;3.17;;
53245;SDS011;39569;51.090;-1.786;2022-10-01T08:12:44;2.70;;;1.85;;
53245;SDS011;39569;51.090;-1.786;2022-10-01T08:15:12;29.35;;;2.67;;
53245;SDS011;39569;51.090;-1.786;2022-10-01T08:17:40;3.00;;;1.13;;
53245;SDS011;39569;51.090;-1.786;2022-10-01T08:20:08;3.80;;;3.03;;
53245;SDS011;39569;51.090;-1.786;2022-10-01T08:22:36;5.15;;;2.65;;
53245;SDS011;39569;51.090;-1.786;2022-10-01T08:25:04;1.92;;;1.83;;
53245;SDS011;39569;51.090;-1.786;2022-10-01T08:27:32;3.83;;;1.75;;
53245;SDS011;39569;51.090;-1.786;2022-10-01T08:30:00;5.05;;;3.95;;
53245;SDS011;39569;51.090;-1.786;2022-10-01T08:32:27;0.82;;;0.82;;
53245;SDS011;39569;51.090;-1.786;2022-10-01T08:34:55;1.35;;;1.35;;
53245;SDS011;39569;51.090;-1.786;2022-10-01T08:37:24;2.13;;;1.92;;
53245;SDS011;39569;51.090;-1.786;2022-10-01T08:39:52;1.52;;;1.02;;
53245;SDS011;39569;51.090;-1.786;2022-10-01T08:42:24;1.65;;;1.38;;
53245;SDS011;39569;51.090;-1.786;2022-10-01T08:45:10;22.35;;;1.77;;
53245;SDS011;39569;51.090;-1.786;2022-10-01T08:47:42;5.45;;;4.20;;
53245;SDS011;39569;51.090;-1.786;2022-10-01T08:50:17;2.38;;;1.77;;
53245;SDS011;39569;51.090;-1.786;2022-10-01T08:52:54;1.13;;;1.10;;
53245;SDS011;39569;51.090;-1.786;2022-10-01T08:55:26;1.13;;;1.13;;
53245;SDS011;39569;51.090;-1.786;2022-10-01T08:58:01;7.17;;;2.63;;
53245;SDS011;39569;51.090;-1.786;2022-10-01T09:00:31;1.92;;;1.75;;
53245;SDS011;39569;51.090;-1.786;2022-10-01T09:03:03;5.95;;;3.17;;
53245;SDS011;39569;51.090;-1.786;2022-10-01T09:05:33;10.27;;;1.77;;
53245;SDS011;39569;51.090;-1.786;2022-10-01T09:08:14;0.80;;;0.80;;
53245;SDS011;39569;51.090;-1.786;2022-10-01T09:10:51;0.50;;;0.50;;
53245;SDS011;39569;51.090;-1.786;2022-10-01T09:13:24;1.48;;;1.42;;
53245;SDS011;39569;51.090;-1.786;2022-10-01T09:16:10;3.05;;;2.67;;
53245;SDS011;39569;51.090;-1.786;2022-10-01T09:18:47;3.30;;;2.25;;
53245;SDS011;39569;51.090;-1.786;2022-10-01T09:21:27;1.63;;;1.52;;
53245;SDS011;39569;51.090;-1.786;2022-10-01T09:24:10;5.68;;;2.22;;
53245;SDS011;39569;51.090;-1.786;2022-10-01T09:26:41;3.88;;;3.22;;
53245;SDS011;39569;51.090;-1.786;2022-10-01T09:29:13;2.05;;;0.90;;
53245;SDS011;39569;51.090;-1.786;2022-10-01T09:31:45;27.65;;;2.92;;
53245;SDS011;39569;51.090;-1.786;2022-10-01T09:34:14;2.25;;;2.10;;
53245;SDS011;39569;51.090;-1.786;2022-10-01T09:36:46;8.65;;;4.68;;
53245;SDS011;39569;51.090;-1.786;2022-10-01T09:39:29;1.20;;;1.20;;
53245;SDS011;39569;51.090;-1.786;2022-10-01T09:42:00;1.10;;;0.85;;
53245;SDS011;39569;51.090;-1.786;2022-10-01T09:44:28;1.98;;;1.80;;
53245;SDS011;39569;51.090;-1.786;2022-10-01T09:46:58;6.05;;;5.53;;
53245;SDS011;39569;51.090;-1.786;2022-10-01T09:49:26;3.55;;;1.00;;
53245;SDS011;39569;51.090;-1.786;2022-10-01T09:51:58;28.35;;;7.25;;
53245;SDS011;39569;51.090;-1.786;2022-10-01T09:54:31;27.40;;;7.93;;
53245;SDS011;39569;51.090;-1.786;2022-10-01T09:57:04;36.95;;;10.50;;
53245;SDS011;39569;51.090;-1.786;2022-10-01T09:59:34;39.33;;;6.63;;
53245;SDS011;39569;51.090;-1.786;2022-10-01T10:02:11;25.33;;;6.55;;
53245;SDS011;39569;51.090;-1.786;2022-10-01T10:04:41;39.17;;;9.70;;
53245;SDS011;39569;51.090;-1.786;2022-10-01T10:07:10;26.52;;;7.75;;
53245;SDS011;39569;51.090;-1.786;2022-10-01T10:09:44;28.77;;;7.50;;
53245;SDS011;39569;51.090;-1.786;2022-10-01T10:12:23;39.25;;;8.70;;
53245;SDS011;39569;51.090;-1.786;2022-10-01T10:14:53;28.65;;;8.60;;
53245;SDS011;39569;51.090;-1.786;2022-10-01T10:17:24;23.33;;;8.55;;
53245;SDS011;39569;51.090;-1.786;2022-10-01T10:19:52;30.70;;;7.63;;
53245;SDS011;39569;51.090;-1.786;2022-10-01T10:22:20;17.13;;;5.97;;
53245;SDS011;39569;51.090;-1.786;2022-10-01T10:24:49;21.77;;;6.75;;
53245;SDS011;39569;51.090;-1.786;2022-10-01T10:27:22;15.00;;;6.82;;
53245;SDS011;39569;51.090;-1.786;2022-10-01T10:30:00;26.13;;;8.43;;
53245;SDS011;39569;51.090;-1.786;2022-10-01T10:32:29;26.77;;;6.05;;
53245;SDS011;39569;51.090;-1.786;2022-10-01T10:34:57;32.40;;;7.53;;
53245;SDS011;39569;51.090;-1.786;2022-10-01T10:37:30;36.45;;;8.38;;
53245;SDS011;39569;51.090;-1.786;2022-10-01T10:40:02;18.58;;;6.50;;
53245;SDS011;39569;51.090;-1.786;2022-10-01T10:42:33;17.52;;;6.60;;
53245;SDS011;39569;51.090;-1.786;2022-10-01T10:45:03;26.90;;;8.65;;
53245;SDS011;39569;51.090;-1.786;2022-10-01T10:47:44;27.52;;;8.35;;
53245;SDS011;39569;51.090;-1.786;2022-10-01T10:50:20;11.73;;;4.97;;
53245;SDS011;39569;51.090;-1.786;2022-10-01T10:52:54;13.73;;;5.80;;
53245;SDS011;39569;51.090;-1.786;2022-10-01T10:55:22;15.02;;;5.22;;
53245;SDS011;39569;51.090;-1.786;2022-10-01T10:57:51;31.90;;;4.82;;
53245;SDS011;39569;51.090;-1.786;2022-10-01T11:00:18;21.33;;;6.60;;
53245;SDS011;39569;51.090;-1.786;2022-10-01T11:02:50;15.38;;;5.97;;
53245;SDS011;39569;51.090;-1.786;2022-10-01T11:05:21;13.30;;;4.93;;
53245;SDS011;39569;51.090;-1.786;2022-10-01T11:07:52;11.65;;;4.82;;
53245;SDS011;39569;51.090;-1.786;2022-10-01T11:10:25;13.30;;;4.95;;
53245;SDS011;39569;51.090;-1.786;2022-10-01T11:13:03;12.23;;;6.25;;
53245;SDS011;39569;51.090;-1.786;2022-10-01T11:15:47;15.73;;;5.43;;
53245;SDS011;39569;51.090;-1.786;2022-10-01T11:18:39;8.23;;;3.42;;
53245;SDS011;39569;51.090;-1.786;2022-10-01T11:26:52;19.50;;;5.10;;
53245;SDS011;39569;51.090;-1.786;2022-10-01T11:29:27;14.82;;;4.95;;
53245;SDS011;39569;51.090;-1.786;2022-10-01T11:32:05;11.73;;;5.18;;
53245;SDS011;39569;51.090;-1.786;2022-10-01T11:34:49;12.25;;;4.65;;
53245;SDS011;39569;51.090;-1.786;2022-10-01T11:37:39;31.30;;;4.75;;
53245;SDS011;39569;51.090;-1.786;2022-10-01T11:40:17;19.80;;;4.97;;
53245;SDS011;39569;51.090;-1.786;2022-10-01T11:42:49;13.48;;;3.85;;
53245;SDS011;39569;51.090;-1.786;2022-10-01T11:45:21;12.93;;;4.85;;
53245;SDS011;39569;51.090;-1.786;2022-10-01T11:47:53;12.52;;;4.63;;
53245;SDS011;39569;51.090;-1.786;2022-10-01T11:50:25;16.98;;;4.75;;
53245;SDS011;39569;51.090;-1.786;2022-10-01T11:52:55;14.38;;;3.65;;
53245;SDS011;39569;51.090;-1.786;2022-10-01T11:55:26;12.55;;;3.88;;
53245;SDS011;39569;51.090;-1.786;2022-10-01T11:58:15;16.08;;;4.28;;
53245;SDS011;39569;51.090;-1.786;2022-10-01T12:01:08;11.70;;;4.80;;
53245;SDS011;39569;51.090;-1.786;2022-10-01T12:03:44;20.25;;;6.13;;
53245;SDS011;39569;51.090;-1.786;2022-10-01T12:06:23;17.15;;;5.28;;
53245;SDS011;39569;51.090;-1.786;2022-10-01T12:08:55;20.55;;;7.00;;
53245;SDS011;39569;51.090;-1.786;2022-10-01T12:11:28;15.68;;;4.82;;
53245;SDS011;39569;51.090;-1.786;2022-10-01T12:13:59;11.68;;;5.13;;
53245;SDS011;39569;51.090;-1.786;2022-10-01T12:16:34;15.63;;;5.10;;
53245;SDS011;39569;51.090;-1.786;2022-10-01T12:19:09;12.52;;;5.18;;
53245;SDS011;39569;51.090;-1.786;2022-10-01T12:21:44;12.13;;;4.90;;
53245;SDS011;39569;51.090;-1.786;2022-10-01T12:24:17;12.82;;;3.88;;
53245;SDS011;39569;51.090;-1.786;2022-10-01T12:26:51;9.73;;;4.43;;
53245;SDS011;39569;51.090;-1.786;2022-10-01T12:29:28;15.32;;;4.22;;
53245;SDS011;39569;51.090;-1.786;2022-10-01T12:32:06;9.02;;;3.90;;
53245;SDS011;39569;51.090;-1.786;2022-10-01T12:34:43;14.20;;;4.82;;
53245;SDS011;39569;51.090;-1.786;2022-10-01T12:37:23;18.77;;;3.80;;
53245;SDS011;39569;51.090;-1.786;2022-10-01T12:40:07;6.55;;;3.15;;
53245;SDS011;39569;51.090;-1.786;2022-10-01T12:42:58;8.48;;;3.05;;
53245;SDS011;39569;51.090;-1.786;2022-10-01T12:45:41;7.60;;;2.40;;
53245;SDS011;39569;51.090;-1.786;2022-10-01T12:48:16;3.72;;;1.83;;
53245;SDS011;39569;51.090;-1.786;2022-10-01T12:50:51;14.48;;;4.05;;
53245;SDS011;39569;51.090;-1.786;2022-10-01T12:53:41;11.88;;;2.78;;
53245;SDS011;39569;51.090;-1.786;2022-10-01T12:56:15;18.23;;;4.25;;
53245;SDS011;39569;51.090;-1.786;2022-10-01T12:58:58;10.68;;;3.92;;
53245;SDS011;39569;51.090;-1.786;2022-10-01T13:01:43;18.08;;;4.72;;
53245;SDS011;39569;51.090;-1.786;2022-10-01T13:04:24;12.52;;;4.43;;
53245;SDS011;39569;51.090;-1.786;2022-10-01T13:07:11;9.25;;;3.58;;
53245;SDS011;39569;51.090;-1.786;2022-10-01T13:10:10;15.15;;;4.22;;
53245;SDS011;39569;51.090;-1.786;2022-10-01T13:12:48;12.13;;;4.45;;
53245;SDS011;39569;51.090;-1.786;2022-10-01T13:15:24;9.23;;;3.67;;
53245;SDS011;39569;51.090;-1.786;2022-10-01T13:17:56;17.10;;;5.65;;
53245;SDS011;39569;51.090;-1.786;2022-10-01T13:20:32;11.20;;;3.72;;
53245;SDS011;39569;51.090;-1.786;2022-10-01T13:23:08;9.53;;;3.47;;
53245;SDS011;39569;51.090;-1.786;2022-10-01T13:25:44;10.45;;;4.45;;
53245;SDS011;39569;51.090;-1.786;2022-10-01T13:28:21;17.10;;;5.72;;
53245;SDS011;39569;51.090;-1.786;2022-10-01T13:30:55;16.75;;;3.92;;
53245;SDS011;39569;51.090;-1.786;2022-10-01T13:33:25;15.18;;;4.95;;
53245;SDS011;39569;51.090;-1.786;2022-10-01T13:35:54;18.40;;;5.00;;
53245;SDS011;39569;51.090;-1.786;2022-10-01T13:38:27;12.95;;;5.43;;
53245;SDS011;39569;51.090;-1.786;2022-10-01T13:40:58;12.98;;;4.45;;
53245;SDS011;39569;51.090;-1.786;2022-10-01T13:43:27;15.60;;;5.43;;
53245;SDS011;39569;51.090;-1.786;2022-10-01T13:46:03;21.48;;;6.00;;
53245;SDS011;39569;51.090;-1.786;2022-10-01T13:48:32;16.05;;;4.72;;
53245;SDS011;39569;51.090;-1.786;2022-10-01T13:51:03;18.70;;;3.85;;
53245;SDS011;39569;51.090;-1.786;2022-10-01T13:53:34;20.48;;;4.35;;
53245;SDS011;39569;51.090;-1.786;2022-10-01T13:56:05;10.10;;;4.30;;
53245;SDS011;39569;51.090;-1.786;2022-10-01T13:58:35;14.07;;;3.85;;
53245;SDS011;39569;51.090;-1.786;2022-10-01T14:01:04;12.60;;;5.43;;
53245;SDS011;39569;51.090;-1.786;2022-10-01T14:03:41;13.10;;;4.07;;
53245;SDS011;39569;51.090;-1.786;2022-10-01T14:06:16;16.88;;;4.47;;
53245;SDS011;39569;51.090;-1.786;2022-10-01T14:08:51;17.38;;;5.90;;
53245;SDS011;39569;51.090;-1.786;2022-10-01T14:11:26;21.20;;;5.30;;
53245;SDS011;39569;51.090;-1.786;2022-10-01T14:14:18;16.67;;;6.10;;
53245;SDS011;39569;51.090;-1.786;2022-10-01T14:17:05;14.50;;;3.90;;
53245;SDS011;39569;51.090;-1.786;2022-10-01T14:19:34;18.45;;;5.45;;
53245;SDS011;39569;51.090;-1.786;2022-10-01T14:22:04;22.70;;;6.32;;
53245;SDS011;39569;51.090;-1.786;2022-10-01T14:24:45;31.05;;;7.75;;
53245;SDS011;39569;51.090;-1.786;2022-10-01T14:27:31;14.18;;;5.00;;
53245;SDS011;39569;51.090;-1.786;2022-10-01T14:30:05;20.58;;;5.72;;
53245;SDS011;39569;51.090;-1.786;2022-10-01T14:32:42;13.20;;;4.50;;
53245;SDS011;39569;51.090;-1.786;2022-10-01T14:35:25;17.60;;;5.53;;
53245;SDS011;39569;51.090;-1.786;2022-10-01T14:37:57;14.80;;;5.57;;
53245;SDS011;39569;51.090;-1.786;2022-10-01T14:40:25;17.25;;;5.00;;
53245;SDS011;39569;51.090;-1.786;2022-10-01T14:43:18;23.48;;;5.53;;
53245;SDS011;39569;51.090;-1.786;2022-10-01T14:45:49;20.65;;;6.50;;
53245;SDS011;39569;51.090;-1.786;2022-10-01T14:48:18;15.10;;;4.78;;
53245;SDS011;39569;51.090;-1.786;2022-10-01T14:50:48;22.83;;;4.88;;
53245;SDS011;39569;51.090;-1.786;2022-10-01T14:53:18;23.05;;;5.38;;
53245;SDS011;39569;51.090;-1.786;2022-10-01T14:55:47;16.73;;;5.00;;
53245;SDS011;39569;51.090;-1.786;2022-10-01T14:58:19;16.00;;;4.93;;
53245;SDS011;39569;51.090;-1.786;2022-10-01T15:00:50;19.17;;;5.37;;
53245;SDS011;39569;51.090;-1.786;2022-10-01T15:03:19;28.30;;;5.72;;
53245;SDS011;39569;51.090;-1.786;2022-10-01T15:05:47;22.83;;;5.38;;
53245;SDS011;39569;51.090;-1.786;2022-10-01T15:08:15;28.30;;;5.97;;
53245;SDS011;39569;51.090;-1.786;2022-10-01T15:10:46;21.10;;;6.03;;
53245;SDS011;39569;51.090;-1.786;2022-10-01T15:13:20;22.50;;;5.88;;
53245;SDS011;39569;51.090;-1.786;2022-10-01T15:15:51;9.95;;;4.70;;